createdAt,value
2016-09-28T00:01:00.165Z,0.00
2016-09-28T00:02:00.681Z,0.00
2016-09-28T00:03:01.190Z,0.00
2016-09-28T00:04:01.705Z,0.00
2016-09-28T00:05:02.214Z,0.00
2016-09-28T00:06:02.727Z,0.00
2016-09-28T00:07:03.242Z,0.00
2016-09-28T00:08:03.751Z,0.00
2016-09-28T00:09:04.262Z,0.00
2016-09-28T00:10:05.076Z,0.00
2016-09-28T00:11:05.287Z,0.00
2016-09-28T00:12:05.794Z,0.00
2016-09-28T00:13:07.807Z,0.00
2016-09-28T00:14:06.818Z,0.00
2016-09-28T00:15:07.329Z,0.00
2016-09-28T00:16:07.849Z,0.00
2016-09-28T00:17:08.372Z,0.00
2016-09-28T00:18:08.873Z,0.00
2016-09-28T00:19:09.391Z,0.00
2016-09-28T00:20:09.904Z,0.00
2016-09-28T00:21:10.427Z,0.00
2016-09-28T00:22:10.939Z,0.00
2016-09-28T00:23:11.449Z,0.00
2016-09-28T00:24:11.971Z,0.00
2016-09-28T00:25:12.483Z,0.00
2016-09-28T00:26:12.995Z,0.00
2016-09-28T00:27:13.516Z,0.00
2016-09-28T00:28:14.009Z,0.00
2016-09-28T00:29:14.521Z,0.00
2016-09-28T00:30:15.036Z,0.00
2016-09-28T00:31:15.546Z,0.00
2016-09-28T00:32:16.066Z,0.00
2016-09-28T00:33:16.573Z,0.00
2016-09-28T00:34:17.087Z,0.00
2016-09-28T00:35:17.746Z,0.00
2016-09-28T00:36:18.106Z,0.00
2016-09-28T00:37:18.622Z,0.00
2016-09-28T00:38:19.138Z,0.00
2016-09-28T00:39:19.640Z,0.00
2016-09-28T00:40:20.159Z,0.00
2016-09-28T00:41:20.685Z,0.00
2016-09-28T00:42:21.178Z,0.00
2016-09-28T00:43:21.685Z,0.00
2016-09-28T00:44:22.348Z,0.00
2016-09-28T00:45:22.859Z,0.00
2016-09-28T00:46:23.225Z,0.00
2016-09-28T00:47:23.734Z,0.00
2016-09-28T00:48:24.244Z,0.00
2016-09-28T00:49:24.774Z,0.00
2016-09-28T00:50:25.273Z,0.00
2016-09-28T00:51:25.783Z,0.00
2016-09-28T00:52:26.297Z,0.00
2016-09-28T00:53:26.954Z,0.00
2016-09-28T00:54:27.318Z,0.00
2016-09-28T00:55:27.831Z,0.00
2016-09-28T00:56:28.340Z,0.00
2016-09-28T00:57:28.856Z,0.00
2016-09-28T00:58:29.381Z,0.00
2016-09-28T00:59:29.889Z,0.00
2016-09-28T01:00:30.405Z,0.00
2016-09-28T01:01:30.918Z,0.00
2016-09-28T01:02:31.443Z,0.00
2016-09-28T01:03:32.090Z,0.00
2016-09-28T01:04:32.449Z,0.00
2016-09-28T01:05:32.958Z,0.00
2016-09-28T01:06:33.470Z,0.00
2016-09-28T01:07:33.980Z,0.00
2016-09-28T01:08:34.493Z,0.00
2016-09-28T01:09:35.005Z,0.00
2016-09-28T01:10:35.669Z,0.00
2016-09-28T01:11:36.041Z,0.00
2016-09-28T01:12:36.544Z,0.00
2016-09-28T01:13:37.052Z,0.00
2016-09-28T01:14:37.569Z,0.00
2016-09-28T01:15:38.085Z,0.00
2016-09-28T01:16:38.593Z,0.00
2016-09-28T01:17:39.257Z,0.00
2016-09-28T01:18:39.644Z,0.00
2016-09-28T01:19:40.131Z,0.00
2016-09-28T01:20:40.637Z,0.00
2016-09-28T01:21:41.161Z,0.00
2016-09-28T01:22:41.665Z,0.00
2016-09-28T01:23:42.172Z,0.00
2016-09-28T01:24:42.681Z,0.00
2016-09-28T01:25:43.191Z,0.00
2016-09-28T01:26:43.703Z,0.00
2016-09-28T01:27:44.375Z,0.00
2016-09-28T01:28:44.732Z,0.00
2016-09-28T01:29:45.239Z,0.00
2016-09-28T01:30:47.553Z,0.00
2016-09-28T01:31:46.257Z,0.00
2016-09-28T01:32:46.765Z,0.00
2016-09-28T01:33:47.277Z,0.00
2016-09-28T01:34:47.795Z,0.00
2016-09-28T01:35:48.309Z,0.00
2016-09-28T01:36:48.979Z,0.00
2016-09-28T01:37:49.349Z,0.00
2016-09-28T01:38:49.865Z,0.00
2016-09-28T01:39:50.377Z,0.00
2016-09-28T01:40:50.891Z,0.00
2016-09-28T01:41:51.404Z,0.00
2016-09-28T01:42:51.916Z,0.00
2016-09-28T01:43:52.428Z,0.00
2016-09-28T01:44:52.943Z,0.00
2016-09-28T01:45:53.448Z,0.00
2016-09-28T01:46:53.959Z,0.00
2016-09-28T01:47:54.617Z,0.00
2016-09-28T01:48:54.976Z,0.00
2016-09-28T01:49:55.493Z,0.00
2016-09-28T01:50:56.003Z,0.00
2016-09-28T01:51:56.520Z,0.00
2016-09-28T01:52:57.038Z,0.00
2016-09-28T01:53:57.560Z,0.00
2016-09-28T01:54:58.047Z,0.00
2016-09-28T01:55:58.555Z,0.00
2016-09-28T01:56:59.218Z,0.00
2016-09-28T01:57:59.580Z,0.00
2016-09-28T01:59:00.096Z,0.00
2016-09-28T02:00:00.601Z,0.00
2016-09-28T02:01:01.111Z,0.00
2016-09-28T02:02:01.625Z,0.00
2016-09-28T02:03:02.286Z,0.00
2016-09-28T02:04:02.647Z,0.00
2016-09-28T02:05:03.156Z,0.00
2016-09-28T02:06:03.823Z,0.00
2016-09-28T02:07:04.188Z,0.00
2016-09-28T02:08:04.697Z,0.00
2016-09-28T02:09:05.208Z,0.00
2016-09-28T02:10:05.718Z,0.00
2016-09-28T02:11:06.377Z,0.00
2016-09-28T02:12:06.890Z,0.00
2016-09-28T02:13:07.253Z,0.00
2016-09-28T02:14:07.770Z,0.00
2016-09-28T02:15:08.285Z,0.00
2016-09-28T02:16:08.803Z,0.00
2016-09-28T02:17:09.311Z,0.00
2016-09-28T02:18:09.824Z,0.00
2016-09-28T02:19:10.339Z,0.00
2016-09-28T02:20:10.854Z,0.00
2016-09-28T02:21:11.513Z,0.00
2016-09-28T02:22:11.872Z,0.00
2016-09-28T02:23:12.392Z,0.00
2016-09-28T02:24:12.891Z,0.00
2016-09-28T02:25:13.398Z,0.00
2016-09-28T02:26:13.909Z,0.00
2016-09-28T02:27:14.423Z,0.00
2016-09-28T02:28:14.936Z,0.00
2016-09-28T02:29:15.444Z,0.00
2016-09-28T02:30:15.971Z,0.00
2016-09-28T02:31:16.492Z,0.00
2016-09-28T02:32:16.979Z,0.00
2016-09-28T02:33:17.489Z,0.00
2016-09-28T02:34:18.001Z,0.00
2016-09-28T02:35:18.516Z,0.00
2016-09-28T02:36:19.061Z,0.00
2016-09-28T02:37:19.539Z,0.00
2016-09-28T02:38:20.077Z,0.00
2016-09-28T02:39:20.565Z,0.00
2016-09-28T02:40:21.071Z,0.00
2016-09-28T02:41:21.610Z,0.00
2016-09-28T02:42:22.084Z,0.00
2016-09-28T02:43:22.601Z,0.00
2016-09-28T02:44:23.110Z,0.00
2016-09-28T02:45:23.637Z,0.00
2016-09-28T02:46:24.128Z,0.00
2016-09-28T02:47:24.641Z,0.00
2016-09-28T02:48:25.148Z,0.00
2016-09-28T02:49:25.663Z,0.00
2016-09-28T02:50:26.171Z,0.00
2016-09-28T02:51:26.689Z,0.00
2016-09-28T02:52:27.212Z,0.00
2016-09-28T02:53:27.897Z,0.00
2016-09-28T02:54:28.384Z,0.00
2016-09-28T02:55:28.747Z,0.00
2016-09-28T02:56:29.262Z,0.00
2016-09-28T02:57:29.776Z,0.00
2016-09-28T02:58:30.290Z,0.00
2016-09-28T02:59:30.803Z,0.00
2016-09-28T03:00:31.313Z,0.00
2016-09-28T03:01:31.828Z,0.00
2016-09-28T03:02:32.336Z,0.00
2016-09-28T03:03:32.855Z,0.00
2016-09-28T03:04:33.358Z,0.00
2016-09-28T03:05:34.767Z,0.00
2016-09-28T03:06:34.380Z,0.00
2016-09-28T03:07:34.891Z,0.00
2016-09-28T03:08:35.413Z,0.00
2016-09-28T03:09:35.918Z,0.00
2016-09-28T03:10:36.429Z,0.00
2016-09-28T03:11:36.941Z,0.00
2016-09-28T03:12:37.605Z,0.00
2016-09-28T03:13:37.964Z,0.00
2016-09-28T03:14:38.477Z,0.00
2016-09-28T03:15:38.989Z,0.00
2016-09-28T03:16:39.503Z,0.00
2016-09-28T03:17:40.016Z,0.00
2016-09-28T03:18:40.680Z,0.00
2016-09-28T03:19:41.042Z,0.00
2016-09-28T03:20:41.554Z,0.00
2016-09-28T03:21:42.073Z,0.00
2016-09-28T03:22:42.582Z,0.00
2016-09-28T03:23:43.100Z,0.00
2016-09-28T03:24:43.614Z,0.00
2016-09-28T03:25:44.128Z,0.00
2016-09-28T03:27:45.296Z,0.00
2016-09-28T03:28:45.667Z,0.00
2016-09-28T03:29:46.175Z,0.00
2016-09-28T03:30:46.690Z,0.00
2016-09-28T03:31:47.202Z,0.00
2016-09-28T03:32:47.715Z,0.00
2016-09-28T03:33:48.236Z,0.00
2016-09-28T03:34:48.739Z,0.00
2016-09-28T03:35:49.249Z,0.00
2016-09-28T03:36:49.935Z,0.00
2016-09-28T03:37:50.426Z,0.00
2016-09-28T03:38:50.785Z,0.00
2016-09-28T03:39:51.296Z,0.00
2016-09-28T03:40:51.806Z,0.00
2016-09-28T03:41:52.320Z,0.00
2016-09-28T03:42:52.827Z,0.00
2016-09-28T03:43:53.338Z,0.00
2016-09-28T03:44:53.849Z,0.00
2016-09-28T03:45:54.357Z,0.00
2016-09-28T03:46:54.870Z,0.00
2016-09-28T03:47:55.382Z,0.00
2016-09-28T03:48:55.896Z,0.00
2016-09-28T03:49:56.411Z,0.00
2016-09-28T03:50:56.926Z,0.00
2016-09-28T03:51:57.435Z,0.00
2016-09-28T03:52:57.952Z,0.00
2016-09-28T03:53:58.451Z,0.00
2016-09-28T03:54:58.978Z,0.00
2016-09-28T03:55:59.622Z,0.00
2016-09-28T03:56:59.982Z,0.00
2016-09-28T03:58:00.494Z,0.00
2016-09-28T03:59:01.017Z,0.00
2016-09-28T04:00:01.539Z,0.00
2016-09-28T04:01:02.036Z,0.00
2016-09-28T04:02:02.544Z,0.00
2016-09-28T04:03:03.206Z,0.00
2016-09-28T04:04:03.572Z,0.00
2016-09-28T04:05:04.087Z,0.00
2016-09-28T04:06:04.602Z,0.00
2016-09-28T04:07:05.137Z,0.00
2016-09-28T04:08:05.639Z,0.00
2016-09-28T04:09:06.160Z,0.00
2016-09-28T04:10:06.817Z,0.00
2016-09-28T04:11:07.169Z,0.00
2016-09-28T04:12:07.702Z,0.00
2016-09-28T04:13:08.193Z,0.00
2016-09-28T04:14:08.706Z,0.00
2016-09-28T04:15:09.219Z,0.00
2016-09-28T04:16:09.734Z,0.00
2016-09-28T04:17:10.253Z,0.00
2016-09-28T04:18:10.763Z,0.00
2016-09-28T04:19:11.272Z,0.00
2016-09-28T04:20:11.933Z,0.00
2016-09-28T04:21:12.300Z,0.00
2016-09-28T04:22:12.801Z,0.00
2016-09-28T04:23:13.316Z,0.00
2016-09-28T04:24:13.827Z,0.00
2016-09-28T04:25:14.337Z,0.00
2016-09-28T04:26:14.997Z,0.00
2016-09-28T04:27:15.361Z,0.00
2016-09-28T04:28:15.877Z,0.00
2016-09-28T04:29:16.390Z,0.00
2016-09-28T04:30:17.058Z,0.00
2016-09-28T04:31:17.412Z,0.00
2016-09-28T04:32:17.921Z,0.00
2016-09-28T04:33:18.430Z,0.00
2016-09-28T04:34:18.946Z,0.00
2016-09-28T04:35:19.456Z,0.00
2016-09-28T04:36:19.974Z,0.00
2016-09-28T04:37:20.489Z,0.00
2016-09-28T04:38:21.004Z,0.00
2016-09-28T04:39:21.662Z,0.00
2016-09-28T04:40:22.024Z,0.00
2016-09-28T04:41:23.592Z,0.00
2016-09-28T04:42:23.052Z,0.00
2016-09-28T04:43:23.568Z,0.00
2016-09-28T04:44:24.089Z,0.00
2016-09-28T04:45:24.599Z,0.00
2016-09-28T04:46:25.114Z,0.00
2016-09-28T04:47:25.621Z,0.00
2016-09-28T04:48:26.131Z,0.00
2016-09-28T04:49:26.645Z,0.00
2016-09-28T04:50:27.147Z,0.00
2016-09-28T04:51:27.658Z,0.00
2016-09-28T04:52:28.168Z,0.00
2016-09-28T04:53:28.678Z,0.00
2016-09-28T04:54:29.334Z,0.00
2016-09-28T04:55:29.716Z,0.00
2016-09-28T04:56:31.709Z,0.00
2016-09-28T04:57:30.872Z,0.00
2016-09-28T04:58:31.231Z,0.00
2016-09-28T04:59:31.742Z,0.00
2016-09-28T05:00:32.252Z,0.00
2016-09-28T05:01:32.771Z,0.00
2016-09-28T05:02:33.275Z,0.00
2016-09-28T05:03:33.785Z,0.00
2016-09-28T05:04:34.448Z,0.00
2016-09-28T05:05:34.809Z,0.00
2016-09-28T05:06:35.320Z,3.00
2016-09-28T05:07:35.830Z,0.00
2016-09-28T05:08:36.355Z,0.00
2016-09-28T05:09:36.868Z,0.00
2016-09-28T05:10:37.367Z,0.00
2016-09-28T05:11:37.886Z,0.00
2016-09-28T05:12:38.392Z,0.00
2016-09-28T05:13:39.047Z,0.00
2016-09-28T05:14:39.552Z,0.00
2016-09-28T05:15:39.921Z,0.00
2016-09-28T05:16:40.435Z,0.00
2016-09-28T05:17:40.954Z,0.00
2016-09-28T05:18:41.478Z,0.00
2016-09-28T05:19:42.009Z,0.00
2016-09-28T05:20:42.524Z,0.00
2016-09-28T05:21:43.038Z,0.00
2016-09-28T05:22:43.732Z,0.00
2016-09-28T05:23:44.073Z,0.00
2016-09-28T05:24:44.742Z,0.00
2016-09-28T05:25:45.096Z,0.00
2016-09-28T05:26:45.616Z,0.00
2016-09-28T05:27:46.123Z,0.00
2016-09-28T05:28:46.638Z,0.00
2016-09-28T05:29:47.149Z,0.00
2016-09-28T05:30:47.657Z,0.00
2016-09-28T05:31:48.170Z,0.00
2016-09-28T05:32:48.710Z,0.00
2016-09-28T05:33:49.194Z,0.00
2016-09-28T05:34:49.699Z,0.00
2016-09-28T05:35:50.219Z,0.00
2016-09-28T05:36:50.728Z,0.00
2016-09-28T05:37:51.242Z,1.00
2016-09-28T05:38:51.757Z,1.00
2016-09-28T05:39:52.274Z,1.00
2016-09-28T05:40:52.776Z,1.00
2016-09-28T05:41:53.302Z,1.00
2016-09-28T05:42:53.799Z,1.00
2016-09-28T05:43:54.310Z,1.00
2016-09-28T05:44:54.835Z,1.00
2016-09-28T05:45:55.342Z,1.00
2016-09-28T05:46:55.852Z,1.00
2016-09-28T05:47:56.382Z,1.00
2016-09-28T05:48:57.022Z,1.00
2016-09-28T05:49:57.384Z,1.00
2016-09-28T05:50:57.892Z,1.00
2016-09-28T05:51:58.416Z,1.00
2016-09-28T05:52:58.920Z,9.00
2016-09-28T05:53:59.430Z,1.00
2016-09-28T05:54:59.945Z,0.00
2016-09-28T05:56:00.605Z,0.00
2016-09-28T05:57:01.118Z,1.00
2016-09-28T05:58:01.484Z,1.00
2016-09-28T05:59:02.003Z,1.00
2016-09-28T06:00:02.517Z,1.00
2016-09-28T06:01:03.038Z,1.00
2016-09-28T06:02:03.697Z,1.00
2016-09-28T06:03:04.061Z,1.00
2016-09-28T06:04:04.566Z,1.00
2016-09-28T06:05:05.077Z,1.00
2016-09-28T06:06:05.589Z,1.00
2016-09-28T06:07:06.245Z,1.00
2016-09-28T06:08:06.627Z,1.00
2016-09-28T06:09:07.115Z,1.00
2016-09-28T06:10:07.626Z,1.00
2016-09-28T06:11:08.288Z,1.00
2016-09-28T06:12:08.649Z,1.00
2016-09-28T06:13:09.163Z,1.00
2016-09-28T06:14:09.670Z,9.00
2016-09-28T06:15:10.178Z,1.00
2016-09-28T06:16:10.698Z,1.00
2016-09-28T06:17:11.211Z,1.00
2016-09-28T06:18:11.870Z,1.00
2016-09-28T06:19:12.229Z,1.00
2016-09-28T06:20:12.744Z,1.00
2016-09-28T06:21:13.258Z,1.00
2016-09-28T06:22:13.921Z,1.00
2016-09-28T06:23:14.432Z,1.00
2016-09-28T06:24:14.797Z,2.00
2016-09-28T06:25:15.307Z,2.00
2016-09-28T06:26:15.815Z,3.00
2016-09-28T06:27:16.477Z,3.00
2016-09-28T06:28:16.987Z,3.00
2016-09-28T06:29:17.350Z,3.00
2016-09-28T06:30:17.862Z,3.00
2016-09-28T06:31:18.375Z,3.00
2016-09-28T06:32:18.905Z,3.00
2016-09-28T06:33:19.395Z,3.00
2016-09-28T06:34:19.911Z,3.00
2016-09-28T06:35:20.420Z,9.00
2016-09-28T06:36:20.934Z,4.00
2016-09-28T06:37:21.456Z,4.00
2016-09-28T06:38:21.970Z,3.00
2016-09-28T06:39:22.487Z,3.00
2016-09-28T06:40:22.999Z,4.00
2016-09-28T06:41:23.512Z,5.00
2016-09-28T06:42:24.025Z,5.00
2016-09-28T06:43:24.533Z,5.00
2016-09-28T06:44:25.043Z,5.00
2016-09-28T06:45:25.559Z,6.00
2016-09-28T06:46:26.075Z,6.00
2016-09-28T06:47:26.587Z,5.00
2016-09-28T06:48:27.098Z,5.00
2016-09-28T06:49:27.608Z,6.00
2016-09-28T06:50:28.268Z,6.00
2016-09-28T06:51:28.629Z,6.00
2016-09-28T06:52:29.141Z,6.00
2016-09-28T06:53:29.676Z,6.00
2016-09-28T06:54:30.162Z,6.00
2016-09-28T06:55:30.672Z,6.00
2016-09-28T06:56:31.187Z,6.00
2016-09-28T06:57:31.705Z,5.00
2016-09-28T06:58:32.219Z,5.00
2016-09-28T06:59:32.734Z,5.00
2016-09-28T07:00:33.245Z,6.00
2016-09-28T07:01:33.749Z,5.00
2016-09-28T07:02:35.518Z,9.00
2016-09-28T07:03:34.772Z,4.00
2016-09-28T07:04:35.438Z,4.00
2016-09-28T07:05:35.948Z,4.00
2016-09-28T07:06:36.314Z,4.00
2016-09-28T07:07:36.826Z,5.00
2016-09-28T07:08:37.338Z,5.00
2016-09-28T07:09:37.849Z,5.00
2016-09-28T07:10:38.364Z,6.00
2016-09-28T07:11:38.875Z,6.00
2016-09-28T07:12:39.408Z,6.00
2016-09-28T07:13:39.914Z,6.00
2016-09-28T07:14:40.584Z,6.00
2016-09-28T07:15:40.945Z,6.00
2016-09-28T07:16:41.462Z,5.00
2016-09-28T07:17:41.976Z,6.00
2016-09-28T07:18:42.490Z,6.00
2016-09-28T07:19:42.998Z,6.00
2016-09-28T07:20:43.510Z,6.00
2016-09-28T07:21:44.024Z,6.00
2016-09-28T07:22:44.551Z,6.00
2016-09-28T07:23:45.044Z,6.00
2016-09-28T07:24:45.710Z,6.00
2016-09-28T07:25:46.064Z,6.00
2016-09-28T07:26:46.583Z,6.00
2016-09-28T07:27:47.085Z,6.00
2016-09-28T07:28:47.605Z,6.00
2016-09-28T07:29:48.113Z,6.00
2016-09-28T07:30:48.627Z,9.00
2016-09-28T07:31:49.135Z,9.00
2016-09-28T07:32:49.651Z,8.00
2016-09-28T07:33:50.306Z,8.00
2016-09-28T07:34:50.826Z,9.00
2016-09-28T07:35:51.182Z,19.00
2016-09-28T07:36:51.691Z,10.00
2016-09-28T07:37:52.207Z,10.00
2016-09-28T07:38:52.724Z,9.00
2016-09-28T07:39:53.229Z,9.00
2016-09-28T07:40:53.740Z,9.00
2016-09-28T07:41:54.254Z,9.00
2016-09-28T07:42:54.761Z,9.00
2016-09-28T07:43:55.282Z,8.00
2016-09-28T07:44:55.937Z,8.00
2016-09-28T07:45:56.303Z,9.00
2016-09-28T07:46:56.814Z,9.00
2016-09-28T07:47:57.323Z,9.00
2016-09-28T07:48:57.987Z,9.00
2016-09-28T07:49:58.350Z,9.00
2016-09-28T07:50:58.893Z,8.00
2016-09-28T07:51:59.384Z,8.00
2016-09-28T07:52:59.896Z,8.00
2016-09-28T07:54:00.414Z,8.00
2016-09-28T07:55:00.920Z,8.00
2016-09-28T07:56:01.450Z,8.00
2016-09-28T07:57:01.951Z,8.00
2016-09-28T07:58:02.465Z,7.00
2016-09-28T07:59:02.978Z,7.00
2016-09-28T08:00:03.498Z,7.00
2016-09-28T08:01:04.007Z,7.00
2016-09-28T08:02:04.522Z,7.00
2016-09-28T08:03:05.052Z,7.00
2016-09-28T08:04:05.544Z,7.00
2016-09-28T08:05:06.057Z,7.00
2016-09-28T08:06:06.574Z,8.00
2016-09-28T08:07:07.080Z,9.00
2016-09-28T08:08:09.423Z,19.00
2016-09-28T08:09:08.255Z,11.00
2016-09-28T08:10:08.763Z,11.00
2016-09-28T08:11:09.290Z,12.00
2016-09-28T08:12:09.651Z,12.00
2016-09-28T08:13:10.153Z,12.00
2016-09-28T08:14:10.663Z,11.00
2016-09-28T08:15:11.170Z,8.00
2016-09-28T08:16:11.690Z,7.00
2016-09-28T08:17:12.199Z,7.00
2016-09-28T08:18:12.857Z,8.00
2016-09-28T08:19:13.218Z,9.00
2016-09-28T08:20:13.884Z,19.00
2016-09-28T08:21:14.393Z,13.00
2016-09-28T08:22:14.762Z,17.00
2016-09-28T08:23:15.270Z,28.00
2016-09-28T08:24:15.812Z,34.00
2016-09-28T08:25:16.301Z,36.00
2016-09-28T08:26:16.967Z,49.00
2016-09-28T08:27:17.346Z,69.00
2016-09-28T08:28:17.858Z,38.00
2016-09-28T08:29:18.371Z,25.00
2016-09-28T08:30:19.040Z,56.00
2016-09-28T08:31:19.413Z,21.00
2016-09-28T08:32:19.923Z,19.00
2016-09-28T08:33:20.432Z,39.00
2016-09-28T08:34:20.950Z,29.00
2016-09-28T08:35:21.468Z,89.00
2016-09-28T08:36:21.979Z,88.00
2016-09-28T08:37:22.487Z,87.00
2016-09-28T08:38:23.145Z,79.00
2016-09-28T08:39:23.509Z,36.00
2016-09-28T08:40:24.022Z,38.00
2016-09-28T08:41:24.534Z,21.00
2016-09-28T08:42:25.044Z,29.00
2016-09-28T08:43:25.704Z,16.00
2016-09-28T08:44:26.068Z,14.00
2016-09-28T08:45:26.581Z,13.00
2016-09-28T08:46:27.096Z,13.00
2016-09-28T08:47:27.624Z,12.00
2016-09-28T08:48:28.127Z,11.00
2016-09-28T08:49:28.628Z,12.00
2016-09-28T08:50:29.142Z,13.00
2016-09-28T08:51:29.655Z,13.00
2016-09-28T08:52:30.171Z,19.00
2016-09-28T08:53:30.834Z,29.00
2016-09-28T08:54:31.194Z,26.00
2016-09-28T08:55:31.705Z,27.00
2016-09-28T08:56:32.227Z,13.00
2016-09-28T08:57:32.727Z,11.00
2016-09-28T08:58:33.242Z,10.00
2016-09-28T08:59:33.753Z,8.00
2016-09-28T09:00:34.262Z,8.00
2016-09-28T09:01:34.772Z,8.00
2016-09-28T09:02:35.288Z,8.00
2016-09-28T09:03:35.801Z,8.00
2016-09-28T09:04:36.320Z,8.00
2016-09-28T09:05:36.835Z,9.00
2016-09-28T09:06:37.352Z,19.00
2016-09-28T09:07:37.870Z,10.00
2016-09-28T09:08:38.378Z,10.00
2016-09-28T09:09:38.895Z,9.00
2016-09-28T09:10:39.406Z,9.00
2016-09-28T09:11:39.916Z,9.00
2016-09-28T09:12:40.440Z,9.00
2016-09-28T09:13:40.940Z,9.00
2016-09-28T09:14:41.452Z,9.00
2016-09-28T09:15:41.964Z,9.00
2016-09-28T09:16:42.474Z,19.00
2016-09-28T09:17:43.135Z,11.00
2016-09-28T09:19:35.308Z,11.00
2016-09-28T09:20:44.557Z,10.00
2016-09-28T09:21:45.041Z,10.00
2016-09-28T09:22:45.553Z,11.00
2016-09-28T09:23:46.069Z,12.00
2016-09-28T09:24:46.587Z,12.00
2016-09-28T09:25:47.096Z,11.00
2016-09-28T09:26:47.754Z,10.00
2016-09-28T09:27:48.267Z,12.00
2016-09-28T09:28:48.639Z,12.00
2016-09-28T09:29:49.139Z,16.00
2016-09-28T09:30:49.653Z,11.00
2016-09-28T09:31:50.159Z,13.00
2016-09-28T09:32:50.676Z,14.00
2016-09-28T09:33:51.185Z,13.00
2016-09-28T09:34:51.698Z,13.00
2016-09-28T09:35:52.207Z,13.00
2016-09-28T09:36:52.720Z,14.00
2016-09-28T09:37:53.234Z,14.00
2016-09-28T09:38:53.739Z,13.00
2016-09-28T09:39:54.254Z,12.00
2016-09-28T09:40:54.764Z,19.00
2016-09-28T09:41:55.274Z,11.00
2016-09-28T09:42:55.790Z,11.00
2016-09-28T09:43:56.311Z,10.00
2016-09-28T09:44:56.837Z,12.00
2016-09-28T09:45:57.513Z,13.00
2016-09-28T09:46:57.867Z,13.00
2016-09-28T09:47:58.532Z,13.00
2016-09-28T09:48:58.913Z,19.00
2016-09-28T09:49:59.402Z,12.00
2016-09-28T09:50:59.918Z,13.00
2016-09-28T09:52:00.432Z,11.00
2016-09-28T09:53:00.941Z,11.00
2016-09-28T09:54:01.452Z,10.00
2016-09-28T09:55:01.975Z,9.00
2016-09-28T09:56:02.475Z,19.00
2016-09-28T09:57:02.987Z,11.00
2016-09-28T09:58:03.493Z,11.00
2016-09-28T09:59:04.007Z,12.00
2016-09-28T10:00:04.520Z,13.00
2016-09-28T10:01:05.041Z,12.00
2016-09-28T10:02:05.563Z,12.00
2016-09-28T10:03:06.060Z,11.00
2016-09-28T10:04:06.572Z,11.00
2016-09-28T10:05:07.087Z,11.00
2016-09-28T10:06:07.600Z,11.00
2016-09-28T10:07:08.110Z,11.00
2016-09-28T10:08:08.625Z,11.00
2016-09-28T10:09:09.140Z,11.00
2016-09-28T10:10:09.672Z,10.00
2016-09-28T10:11:10.161Z,10.00
2016-09-28T10:12:10.676Z,10.00
2016-09-28T10:13:11.186Z,11.00
2016-09-28T10:14:11.714Z,11.00
2016-09-28T10:15:12.220Z,10.00
2016-09-28T10:16:12.874Z,9.00
2016-09-28T10:17:13.239Z,8.00
2016-09-28T10:18:13.755Z,8.00
2016-09-28T10:19:14.416Z,8.00
2016-09-28T10:20:14.780Z,8.00
2016-09-28T10:21:15.297Z,9.00
2016-09-28T10:22:15.833Z,19.00
2016-09-28T10:23:16.329Z,9.00
2016-09-28T10:24:16.841Z,9.00
2016-09-28T10:25:17.352Z,9.00
2016-09-28T10:26:17.877Z,9.00
2016-09-28T10:27:18.383Z,19.00
2016-09-28T10:28:18.902Z,10.00
2016-09-28T10:29:19.404Z,10.00
2016-09-28T10:30:19.917Z,10.00
2016-09-28T10:31:20.432Z,9.00
2016-09-28T10:32:21.995Z,19.00
2016-09-28T10:33:21.597Z,11.00
2016-09-28T10:34:21.961Z,10.00
2016-09-28T10:35:22.470Z,9.00
2016-09-28T10:36:22.981Z,9.00
2016-09-28T10:37:23.495Z,9.00
2016-09-28T10:38:24.034Z,9.00
2016-09-28T10:39:24.517Z,9.00
2016-09-28T10:40:25.043Z,9.00
2016-09-28T10:41:25.538Z,9.00
2016-09-28T10:42:26.063Z,9.00
2016-09-28T10:43:26.559Z,9.00
2016-09-28T10:44:27.069Z,8.00
2016-09-28T10:45:27.580Z,8.00
2016-09-28T10:46:28.087Z,8.00
2016-09-28T10:47:28.599Z,8.00
2016-09-28T10:48:29.118Z,8.00
2016-09-28T10:49:29.622Z,9.00
2016-09-28T10:50:30.136Z,19.00
2016-09-28T10:51:30.947Z,11.00
2016-09-28T10:52:31.164Z,19.00
2016-09-28T10:53:31.671Z,11.00
2016-09-28T10:54:32.182Z,11.00
2016-09-28T10:55:32.695Z,11.00
2016-09-28T10:56:33.213Z,12.00
2016-09-28T10:57:33.723Z,13.00
2016-09-28T10:58:34.239Z,13.00
2016-09-28T10:59:34.755Z,12.00
2016-09-28T11:00:35.271Z,11.00
2016-09-28T11:01:35.782Z,12.00
2016-09-28T11:02:36.288Z,12.00
2016-09-28T11:03:36.832Z,12.00
2016-09-28T11:04:37.316Z,12.00
2016-09-28T11:05:37.825Z,11.00
2016-09-28T11:06:38.338Z,10.00
2016-09-28T11:07:38.852Z,9.00
2016-09-28T11:08:39.367Z,9.00
2016-09-28T11:09:39.872Z,9.00
2016-09-28T11:10:40.394Z,9.00
2016-09-28T11:11:41.047Z,9.00
2016-09-28T11:12:41.410Z,9.00
2016-09-28T11:13:41.920Z,8.00
2016-09-28T11:14:42.433Z,8.00
2016-09-28T11:15:42.945Z,8.00
2016-09-28T11:16:43.454Z,8.00
2016-09-28T11:17:43.968Z,8.00
2016-09-28T11:18:44.476Z,8.00
2016-09-28T11:19:44.992Z,8.00
2016-09-28T11:20:45.501Z,8.00
2016-09-28T11:21:46.031Z,8.00
2016-09-28T11:22:46.524Z,8.00
2016-09-28T11:23:47.041Z,9.00
2016-09-28T11:24:47.572Z,9.00
2016-09-28T11:25:48.063Z,9.00
2016-09-28T11:26:48.569Z,8.00
2016-09-28T11:27:49.080Z,9.00
2016-09-28T11:28:49.590Z,9.00
2016-09-28T11:29:50.252Z,9.00
2016-09-28T11:30:50.618Z,9.00
2016-09-28T11:31:51.132Z,19.00
2016-09-28T11:32:51.650Z,10.00
2016-09-28T11:33:52.163Z,19.00
2016-09-28T11:34:52.685Z,19.00
2016-09-28T11:35:53.347Z,10.00
2016-09-28T11:36:53.714Z,10.00
2016-09-28T11:37:54.235Z,10.00
2016-09-28T11:38:54.746Z,10.00
2016-09-28T11:39:55.260Z,10.00
2016-09-28T11:40:55.770Z,10.00
2016-09-28T11:41:56.281Z,10.00
2016-09-28T11:42:56.802Z,10.00
2016-09-28T11:43:57.329Z,19.00
2016-09-28T11:44:58.112Z,12.00
2016-09-28T11:45:58.478Z,13.00
2016-09-28T11:46:58.838Z,14.00
2016-09-28T11:47:59.352Z,14.00
2016-09-28T11:48:59.873Z,14.00
2016-09-28T11:50:01.725Z,16.00
2016-09-28T11:51:00.889Z,16.00
2016-09-28T11:52:01.406Z,18.00
2016-09-28T11:53:01.918Z,18.00
2016-09-28T11:54:02.437Z,19.00
2016-09-28T11:55:02.946Z,35.00
2016-09-28T11:56:03.461Z,39.00
2016-09-28T11:57:03.977Z,25.00
2016-09-28T11:58:04.488Z,18.00
2016-09-28T11:59:05.015Z,19.00
2016-09-28T12:00:05.513Z,29.00
2016-09-28T12:01:06.025Z,20.00
2016-09-28T12:02:06.538Z,21.00
2016-09-28T12:03:07.050Z,21.00
2016-09-28T12:04:07.563Z,21.00
2016-09-28T12:05:08.076Z,22.00
2016-09-28T12:06:08.587Z,23.00
2016-09-28T12:07:09.097Z,24.00
2016-09-28T12:08:09.615Z,22.00
2016-09-28T12:09:10.121Z,28.00
2016-09-28T12:10:10.649Z,39.00
2016-09-28T12:11:11.296Z,25.00
2016-09-28T12:12:11.659Z,24.00
2016-09-28T12:13:12.184Z,23.00
2016-09-28T12:14:12.846Z,29.00
2016-09-28T12:15:13.226Z,39.00
2016-09-28T12:16:13.723Z,39.00
2016-09-28T12:17:14.232Z,31.00
2016-09-28T12:18:14.746Z,34.00
2016-09-28T12:19:15.406Z,34.00
2016-09-28T12:20:15.770Z,39.00
2016-09-28T12:21:16.277Z,39.00
2016-09-28T12:22:16.792Z,29.00
2016-09-28T12:23:17.305Z,39.00
2016-09-28T12:24:17.808Z,39.00
2016-09-28T12:25:18.321Z,34.00
2016-09-28T12:26:18.842Z,38.00
2016-09-28T12:27:19.344Z,38.00
2016-09-28T12:28:20.001Z,31.00
2016-09-28T12:29:20.364Z,26.00
2016-09-28T12:30:21.021Z,23.00
2016-09-28T12:31:21.419Z,21.00
2016-09-28T12:32:21.896Z,20.00
2016-09-28T12:33:22.405Z,18.00
2016-09-28T12:34:22.917Z,17.00
2016-09-28T12:35:23.430Z,16.00
2016-09-28T12:36:23.943Z,19.00
2016-09-28T12:37:24.457Z,14.00
2016-09-28T12:38:24.968Z,13.00
2016-09-28T12:39:25.634Z,13.00
2016-09-28T12:40:26.006Z,14.00
2016-09-28T12:41:26.516Z,15.00
2016-09-28T12:42:27.030Z,16.00
2016-09-28T12:43:27.678Z,16.00
2016-09-28T12:44:28.042Z,19.00
2016-09-28T12:45:28.563Z,29.00
2016-09-28T12:46:29.073Z,23.00
2016-09-28T12:47:29.579Z,22.00
2016-09-28T12:48:30.090Z,21.00
2016-09-28T12:49:30.600Z,23.00
2016-09-28T12:50:31.124Z,24.00
2016-09-28T12:51:31.637Z,23.00
2016-09-28T12:52:32.150Z,23.00
2016-09-28T12:53:32.672Z,23.00
2016-09-28T12:54:33.331Z,22.00
2016-09-28T12:55:33.733Z,22.00
2016-09-28T12:56:34.205Z,21.00
2016-09-28T12:57:34.712Z,21.00
2016-09-28T12:58:35.225Z,21.00
2016-09-28T12:59:35.754Z,21.00
2016-09-28T13:00:36.397Z,21.00
2016-09-28T13:01:36.912Z,21.00
2016-09-28T13:02:37.300Z,20.00
2016-09-28T13:03:37.782Z,20.00
2016-09-28T13:04:38.293Z,19.00
2016-09-28T13:05:38.806Z,19.00
2016-09-28T13:06:39.317Z,29.00
2016-09-28T13:07:39.830Z,20.00
2016-09-28T13:08:40.348Z,19.00
2016-09-28T13:09:40.860Z,19.00
2016-09-28T13:10:41.367Z,18.00
2016-09-28T13:11:41.878Z,19.00
2016-09-28T13:12:42.396Z,19.00
2016-09-28T13:13:43.056Z,19.00
2016-09-28T13:14:43.413Z,29.00
2016-09-28T13:15:43.930Z,24.00
2016-09-28T13:16:44.437Z,24.00
2016-09-28T13:17:44.943Z,20.00
2016-09-28T13:18:45.454Z,20.00
2016-09-28T13:19:45.966Z,19.00